Time;durP1;ratioP1;P1;durP2;ratioP2;P2;SDS_P1;SDS_P2;PMS_P1;PMS_P2;Temp;Humidity;BMP_temperature;BMP_pressure;BME280_temperature;BME280_humidity;BME280_pressure;Samples;Min_cycle;Max_cycle;Signal;HPM_P1;HPM_P2
2022/02/17 00:00:37;;;;;;;0.30;0.20;;;;;;;14.03;100.00;98517.03;4996012;28;20480;-54
2022/02/17 00:03:03;;;;;;;0.30;0.20;;;;;;;14.05;100.00;98532.00;4995803;28;20496;-54
2022/02/17 00:05:30;;;;;;;0.30;0.20;;;;;;;14.16;100.00;98517.88;4995631;28;20905;-54
2022/02/17 00:07:57;;;;;;;0.30;0.20;;;;;;;14.06;100.00;98504.31;4995852;28;20449;-53
2022/02/17 00:10:26;;;;;;;0.30;0.20;;;;;;;14.09;100.00;98525.47;4995830;28;20454;-54
2022/02/17 00:12:56;;;;;;;0.30;0.20;;;;;;;14.07;100.00;98516.72;4995710;28;20492;-53
2022/02/17 00:15:27;;;;;;;0.30;0.20;;;;;;;14.12;100.00;98522.59;4995910;28;20507;-54
2022/02/17 00:17:55;;;;;;;0.30;0.20;;;;;;;14.08;100.00;98520.22;4995624;28;20524;-54
2022/02/17 00:20:22;;;;;;;0.30;0.20;;;;;;;14.07;100.00;98516.72;4995634;28;20943;-54
2022/02/17 00:22:48;;;;;;;0.30;0.20;;;;;;;14.15;100.00;98519.69;4995275;28;20454;-54
2022/02/17 00:25:15;;;;;;;0.30;0.20;;;;;;;14.09;100.00;98520.13;4995494;28;20505;-54
2022/02/17 00:27:43;;;;;;;0.30;0.20;;;;;;;14.11;100.00;98528.88;4995337;28;21029;-54
2022/02/17 00:30:11;;;;;;;0.30;0.20;;;;;;;14.01;100.00;98532.34;4995408;28;20499;-54
2022/02/17 00:32:38;;;;;;;0.30;0.20;;;;;;;13.90;100.00;98519.72;4995168;28;20493;-53
2022/02/17 00:35:06;;;;;;;0.30;0.20;;;;;;;13.98;100.00;98519.16;4995031;28;20473;-54
2022/02/17 00:37:33;;;;;;;0.30;0.20;;;;;;;14.02;100.00;98516.19;4995058;28;20528;-54
2022/02/17 00:40:00;;;;;;;0.30;0.20;;;;;;;14.04;100.00;98500.91;4995341;28;20453;-54
2022/02/17 00:42:27;;;;;;;0.30;0.20;;;;;;;14.01;100.00;98500.28;4994980;28;20453;-54
2022/02/17 00:44:53;;;;;;;0.30;0.20;;;;;;;14.11;100.00;98482.59;4994980;28;20474;-53
2022/02/17 00:47:21;;;;;;;0.30;0.20;;;;;;;14.09;100.00;98476.50;4995372;28;20453;-54
2022/02/17 00:49:47;;;;;;;0.30;0.20;;;;;;;14.11;100.00;98459.41;4994761;28;20978;-54
2022/02/17 00:52:14;;;;;;;0.30;0.20;;;;;;;14.08;100.00;98467.66;4995070;28;20525;-54
2022/02/17 00:54:41;;;;;;;0.30;0.20;;;;;;;14.11;100.00;98478.09;4994750;28;21009;-54
2022/02/17 00:57:07;;;;;;;0.30;0.20;;;;;;;14.17;100.00;98469.66;4994898;28;20457;-54
2022/02/17 00:59:34;;;;;;;0.33;0.27;;;;;;;14.05;100.00;98457.19;4994972;28;20571;-54
2022/02/17 01:02:01;;;;;;;0.30;0.20;;;;;;;14.07;100.00;98465.94;4994593;28;20942;-53
2022/02/17 01:04:27;;;;;;;0.30;0.20;;;;;;;14.10;100.00;98452.34;4994549;28;20563;-54
2022/02/17 01:06:54;;;;;;;0.30;0.20;;;;;;;14.14;100.00;98461.03;4995060;28;20481;-54
2022/02/17 01:09:21;;;;;;;0.30;0.20;;;;;;;14.11;100.00;98458.56;4994915;28;20449;-53
2022/02/17 01:11:47;;;;;;;0.30;0.20;;;;;;;14.12;100.00;98461.13;4994511;28;20521;-54
2022/02/17 01:14:14;;;;;;;0.30;0.20;;;;;;;14.15;100.00;98457.38;4994351;28;20449;-54
2022/02/17 01:16:41;;;;;;;0.30;0.20;;;;;;;14.18;100.00;98454.47;4994451;28;20450;-54
2022/02/17 01:19:07;;;;;;;0.30;0.20;;;;;;;14.02;100.00;98457.41;4994369;28;20500;-54
2022/02/17 01:21:34;;;;;;;0.30;0.20;;;;;;;14.11;100.00;98464.75;4994312;28;20453;-54
2022/02/17 01:24:01;;;;;;;0.30;0.20;;;;;;;14.01;100.00;98471.75;4994014;28;20990;-54
2022/02/17 01:26:27;;;;;;;0.30;0.20;;;;;;;14.06;100.00;98447.34;4994240;28;20489;-53
2022/02/17 01:28:54;;;;;;;0.30;0.20;;;;;;;14.14;100.00;98450.34;4994402;28;20481;-53
2022/02/17 01:31:21;;;;;;;0.30;0.20;;;;;;;14.19;100.00;98454.38;4994062;28;20449;-52
2022/02/17 01:33:48;;;;;;;0.30;0.20;;;;;;;14.01;100.00;98476.22;4994278;28;20532;-53
2022/02/17 01:36:15;;;;;;;0.30;0.20;;;;;;;14.01;100.00;98452.19;4993874;28;20512;-52
2022/02/17 01:38:44;;;;;;;0.30;0.20;;;;;;;13.91;100.00;98463.53;4994123;28;20496;-53
2022/02/17 01:41:12;;;;;;;0.30;0.20;;;;;;;13.98;100.00;98453.28;4994205;28;20453;-52
2022/02/17 01:43:39;;;;;;;0.30;0.20;;;;;;;13.88;100.00;98449.53;4993803;28;20550;-52
2022/02/17 01:46:07;;;;;;;0.30;0.20;;;;;;;13.86;100.00;98448.81;4993739;28;20887;-53
2022/02/17 01:48:36;;;;;;;0.30;0.20;;;;;;;13.80;100.00;98439.38;4994358;28;20449;-52
2022/02/17 01:51:04;;;;;;;0.30;0.20;;;;;;;13.83;100.00;98436.50;4993931;28;20477;-53
2022/02/17 01:53:32;;;;;;;0.30;0.20;;;;;;;13.78;100.00;98451.16;4993716;28;20493;-53
2022/02/17 01:56:01;;;;;;;0.30;0.20;;;;;;;13.81;100.00;98461.59;4993732;28;20531;-53
2022/02/17 01:58:32;;;;;;;0.30;0.20;;;;;;;13.52;100.00;98456.50;4993771;28;20935;-52
2022/02/17 02:00:59;;;;;;;0.30;0.20;;;;;;;13.61;100.00;98463.03;4993670;28;20504;-53
2022/02/17 02:03:26;;;;;;;0.30;0.20;;;;;;;13.58;100.00;98448.09;4993768;28;20449;-53
2022/02/17 02:05:53;;;;;;;0.30;0.20;;;;;;;13.70;100.00;98454.34;4993418;28;20508;-53
2022/02/17 02:08:20;;;;;;;0.30;0.20;;;;;;;13.73;100.00;98461.31;4993623;28;20453;-53
2022/02/17 02:10:47;;;;;;;0.30;0.20;;;;;;;13.52;100.00;98469.88;4993458;28;20457;-53
2022/02/17 02:13:14;;;;;;;0.30;0.20;;;;;;;13.54;100.00;98464.41;4993118;28;20914;-53
2022/02/17 02:15:43;;;;;;;0.43;0.30;;;;;;;13.53;100.00;98454.69;4993533;28;20839;-52
2022/02/17 02:18:09;;;;;;;0.30;0.20;;;;;;;13.46;100.00;98450.75;4993516;28;20449;-52
2022/02/17 02:20:47;;;;;;;0.30;0.20;;;;;;;13.47;100.00;98453.31;4993472;28;20450;-53
2022/02/17 02:23:14;;;;;;;0.30;0.20;;;;;;;13.45;100.00;98449.06;4981436;28;20868;-53
2022/02/17 02:25:46;;;;;;;0.30;0.20;;;;;;;13.62;100.00;98449.56;4993178;28;20520;-53
2022/02/17 02:28:22;;;;;;;0.30;0.20;;;;;;;13.63;100.00;98447.75;4993457;28;20450;-53
2022/02/17 02:30:49;;;;;;;0.30;0.20;;;;;;;13.64;100.00;98465.47;4993252;28;20449;-54
2022/02/17 02:33:17;;;;;;;0.30;0.20;;;;;;;13.56;100.00;98475.84;4993145;28;20493;-53
2022/02/17 02:35:44;;;;;;;0.30;0.20;;;;;;;13.57;100.00;98483.75;4992361;28;20488;-53
2022/02/17 02:38:12;;;;;;;0.30;0.20;;;;;;;13.36;100.00;98498.56;4992636;28;20508;-53
2022/02/17 02:40:39;;;;;;;0.30;0.20;;;;;;;13.19;100.00;98505.06;4993316;28;20481;-53
2022/02/17 02:43:06;;;;;;;0.30;0.20;;;;;;;13.16;100.00;98477.72;4993035;28;20972;-53
2022/02/17 02:45:34;;;;;;;0.30;0.20;;;;;;;13.23;100.00;98501.22;4992879;28;20466;-53
2022/02/17 02:48:06;;;;;;;0.30;0.20;;;;;;;13.14;100.00;98509.81;4993153;28;20490;-53
2022/02/17 02:50:34;;;;;;;0.30;0.20;;;;;;;13.16;100.00;98525.75;4992718;28;20485;-54
2022/02/17 02:53:00;;;;;;;0.30;0.20;;;;;;;13.23;100.00;98530.59;4993089;28;20559;-53
2022/02/17 02:55:27;;;;;;;0.30;0.20;;;;;;;13.29;100.00;98534.63;4992914;28;20481;-53
2022/02/17 02:57:54;;;;;;;0.30;0.20;;;;;;;13.32;100.00;98534.44;4993152;28;20450;-53
2022/02/17 03:00:21;;;;;;;0.30;0.20;;;;;;;13.41;100.00;98528.47;4992911;28;20477;-53
2022/02/17 03:02:47;;;;;;;0.30;0.20;;;;;;;13.39;100.00;98540.22;4992800;28;20504;-53
2022/02/17 03:05:14;;;;;;;0.30;0.20;;;;;;;13.38;100.00;98530.50;4992570;28;20470;-54
2022/02/17 03:07:41;;;;;;;0.30;0.20;;;;;;;13.36;100.00;98508.41;4992713;28;20476;-53
2022/02/17 03:10:08;;;;;;;0.30;0.20;;;;;;;13.27;100.00;98524.06;4986688;28;20492;-54
2022/02/17 03:12:36;;;;;;;0.30;0.20;;;;;;;13.18;100.00;98527.38;4992864;28;20556;-53
2022/02/17 03:15:04;;;;;;;0.30;0.20;;;;;;;13.15;100.00;98543.53;4992503;28;21040;-53
2022/02/17 03:17:30;;;;;;;0.30;0.20;;;;;;;13.17;100.00;98571.00;4992809;28;20454;-54
2022/02/17 03:19:57;;;;;;;0.30;0.20;;;;;;;13.14;100.00;98546.31;4992484;28;20516;-53
2022/02/17 03:22:25;;;;;;;0.30;0.20;;;;;;;13.24;100.00;98563.44;4992893;28;20449;-54
2022/02/17 03:24:54;;;;;;;0.30;0.20;;;;;;;13.22;100.00;98584.91;4980348;28;20469;-53
2022/02/17 03:27:21;;;;;;;0.30;0.20;;;;;;;13.20;100.00;98578.81;4992590;28;20457;-54
2022/02/17 03:29:47;;;;;;;0.30;0.20;;;;;;;13.22;97.99;98589.38;4992614;28;20457;-53
2022/02/17 03:32:14;;;;;;;0.30;0.20;;;;;;;13.17;97.20;98600.34;4992365;28;20971;-54
2022/02/17 03:34:41;;;;;;;0.30;0.20;;;;;;;13.23;97.78;98620.44;4992535;28;20535;-53
2022/02/17 03:37:08;;;;;;;0.30;0.20;;;;;;;13.10;96.43;98625.69;4992743;28;20453;-54
2022/02/17 03:39:34;;;;;;;0.30;0.20;;;;;;;13.09;96.07;98637.34;4992624;28;21005;-53
2022/02/17 03:42:01;;;;;;;0.50;0.50;;;;;;;13.05;95.22;98623.34;4992417;28;20453;-53
2022/02/17 03:44:27;;;;;;;0.30;0.20;;;;;;;13.04;91.91;98650.97;4992354;28;20512;-52
2022/02/17 03:46:55;;;;;;;0.30;0.20;;;;;;;12.99;92.28;98637.06;4992288;28;20450;-53
2022/02/17 03:49:23;;;;;;;0.30;0.20;;;;;;;12.93;89.93;98645.47;4996024;28;20453;-53
2022/02/17 03:51:50;;;;;;;0.30;0.20;;;;;;;12.95;88.62;98624.03;4995865;28;20449;-54
2022/02/17 03:54:18;;;;;;;0.30;0.20;;;;;;;12.97;87.99;98643.47;4995748;28;21068;-53
2022/02/17 03:56:44;;;;;;;0.30;0.20;;;;;;;12.89;88.55;98649.31;4996069;28;20484;-53
2022/02/17 03:59:11;;;;;;;0.30;0.20;;;;;;;13.00;86.25;98657.44;4995946;28;20504;-53
2022/02/17 04:01:38;;;;;;;0.30;0.20;;;;;;;12.95;87.23;98675.56;4995632;28;20825;-53
2022/02/17 04:04:08;;;;;;;0.30;0.20;;;;;;;12.98;86.86;98687.84;4995709;28;20452;-53
2022/02/17 04:06:35;;;;;;;0.30;0.20;;;;;;;12.82;87.64;98685.31;4995796;28;20877;-53
2022/02/17 04:09:04;;;;;;;0.30;0.20;;;;;;;12.73;86.72;98697.41;4995795;28;20828;-53
2022/02/17 04:11:31;;;;;;;0.30;0.20;;;;;;;12.72;87.42;98694.81;4995605;28;20449;-53
2022/02/17 04:14:00;;;;;;;0.30;0.20;;;;;;;12.64;87.31;98719.31;4995480;28;20497;-53
2022/02/17 04:16:26;;;;;;;0.30;0.20;;;;;;;12.64;88.40;98713.13;4995711;28;20528;-54
2022/02/17 04:18:53;;;;;;;0.30;0.20;;;;;;;12.61;87.78;98730.19;4995776;28;20453;-52
2022/02/17 04:21:22;;;;;;;0.30;0.20;;;;;;;12.59;88.39;98724.06;4995570;28;20453;-53
2022/02/17 04:23:48;;;;;;;0.30;0.20;;;;;;;12.43;89.12;98753.47;4995547;28;20449;-54
2022/02/17 04:26:17;;;;;;;0.30;0.20;;;;;;;12.50;87.42;98755.78;4995344;28;20481;-52
2022/02/17 04:28:45;;;;;;;0.30;0.20;;;;;;;12.48;84.36;98765.69;4995378;28;20449;-53
2022/02/17 04:31:13;;;;;;;0.30;0.20;;;;;;;12.48;83.53;98763.00;4995497;28;20477;-53
2022/02/17 04:33:41;;;;;;;0.30;0.20;;;;;;;12.36;84.89;98776.13;4995070;28;20529;-53
2022/02/17 04:36:08;;;;;;;0.30;0.20;;;;;;;12.36;84.98;98762.81;4995545;28;20513;-52
2022/02/17 04:38:35;;;;;;;0.30;0.20;;;;;;;12.39;83.20;98769.75;4995223;28;20512;-49
2022/02/17 04:43:47;;;;;;;0.30;0.20;;;;;;;12.38;82.59;98790.22;4995048;28;20471;-49
2022/02/17 04:46:14;;;;;;;0.30;0.20;;;;;;;12.38;83.37;98787.53;4995186;28;20548;-50
2022/02/17 04:48:41;;;;;;;0.30;0.20;;;;;;;12.39;84.48;98796.41;4995104;28;20492;-49
2022/02/17 04:51:10;;;;;;;0.30;0.20;;;;;;;12.38;83.51;98813.34;4995099;28;20503;-50
2022/02/17 04:53:37;;;;;;;0.30;0.20;;;;;;;12.45;82.67;98822.66;4994675;28;20917;-53
2022/02/17 04:56:04;;;;;;;0.30;0.20;;;;;;;12.33;80.53;98834.91;4995110;28;20532;-50
2022/02/17 04:58:31;;;;;;;0.30;0.20;;;;;;;12.31;79.46;98822.63;4994723;28;20496;-53
2022/02/17 05:00:57;;;;;;;0.30;0.20;;;;;;;12.24;80.13;98832.81;4994222;28;20450;-52
2022/02/17 05:03:24;;;;;;;0.30;0.20;;;;;;;12.28;78.94;98833.47;4994799;28;20481;-52
2022/02/17 05:05:52;;;;;;;0.30;0.20;;;;;;;12.25;79.01;98834.50;4994647;28;20528;-50
2022/02/17 05:08:20;;;;;;;0.30;0.20;;;;;;;12.18;79.76;98825.16;4994527;28;20480;-52
2022/02/17 05:10:47;;;;;;;0.30;0.20;;;;;;;12.17;80.26;98826.09;4994689;28;20508;-52
2022/02/17 05:13:14;;;;;;;0.30;0.20;;;;;;;12.06;81.18;98828.53;4994437;28;20535;-50
2022/02/17 05:15:41;;;;;;;0.30;0.20;;;;;;;12.07;82.42;98833.78;4994675;28;20473;-49
2022/02/17 05:18:08;;;;;;;0.30;0.20;;;;;;;12.09;79.08;98826.56;4994355;28;20486;-50
2022/02/17 05:20:35;;;;;;;0.30;0.20;;;;;;;12.11;79.30;98848.63;4994349;28;20489;-52
2022/02/17 05:23:02;;;;;;;0.30;0.20;;;;;;;11.93;79.25;98847.06;4994717;28;20511;-52
2022/02/17 05:25:28;;;;;;;0.30;0.20;;;;;;;11.94;80.07;98848.75;4994445;28;20543;-52
2022/02/17 05:27:55;;;;;;;0.30;0.20;;;;;;;12.01;80.61;98868.75;4994315;28;20805;-52
2022/02/17 05:30:22;;;;;;;0.30;0.20;;;;;;;11.93;81.21;98865.69;4994209;28;20485;-50
2022/02/17 05:32:48;;;;;;;0.30;0.20;;;;;;;11.96;81.57;98878.81;4994120;28;20461;-50
2022/02/17 05:35:15;;;;;;;0.30;0.20;;;;;;;11.86;81.50;98881.13;4993840;28;20516;-50
2022/02/17 05:37:41;;;;;;;0.30;0.20;;;;;;;11.88;80.82;98890.84;4994335;28;20927;-50
2022/02/17 05:40:10;;;;;;;0.30;0.20;;;;;;;11.92;80.15;98879.06;4994573;28;20449;-50
2022/02/17 05:42:37;;;;;;;0.30;0.20;;;;;;;11.71;79.10;98889.94;4994095;28;20453;-50
2022/02/17 05:45:04;;;;;;;0.30;0.20;;;;;;;11.77;78.40;98892.25;4992854;28;20481;-50
2022/02/17 05:47:31;;;;;;;0.30;0.20;;;;;;;11.63;77.99;98886.00;4981346;28;20484;-50
2022/02/17 05:49:57;;;;;;;0.30;0.20;;;;;;;11.72;75.78;98899.66;4993675;28;20453;-50
2022/02/17 05:52:24;;;;;;;0.40;0.37;;;;;;;11.73;74.59;98905.84;4993829;28;21017;-50
2022/02/17 05:54:51;;;;;;;0.30;0.20;;;;;;;11.62;76.64;98905.56;4993510;28;20528;-50
2022/02/17 05:57:17;;;;;;;0.30;0.20;;;;;;;11.62;78.26;98903.75;4993833;28;20509;-49
2022/02/17 05:59:44;;;;;;;0.30;0.20;;;;;;;11.73;78.64;98916.47;4993635;28;20450;-50
2022/02/17 06:02:11;;;;;;;0.30;0.20;;;;;;;11.74;79.60;98924.38;4993895;28;20460;-50
2022/02/17 06:04:37;;;;;;;0.30;0.20;;;;;;;11.70;79.75;98917.53;4993587;28;20469;-49
2022/02/17 06:07:04;;;;;;;0.30;0.20;;;;;;;11.63;78.40;98939.22;4993663;28;20742;-50
2022/02/17 06:09:30;;;;;;;0.30;0.20;;;;;;;11.69;78.86;98928.25;4993675;28;20508;-49
2022/02/17 06:11:57;;;;;;;0.30;0.20;;;;;;;11.54;78.26;98930.81;4993414;28;20453;-50
2022/02/17 06:14:24;;;;;;;0.30;0.20;;;;;;;11.60;77.58;98948.22;4993207;28;20520;-49
2022/02/17 06:16:52;;;;;;;0.30;0.20;;;;;;;11.65;77.70;98954.19;4993430;28;20548;-50
2022/02/17 06:19:19;;;;;;;0.30;0.20;;;;;;;11.51;78.81;98941.63;4993306;28;20492;-49
2022/02/17 06:21:45;;;;;;;0.30;0.20;;;;;;;11.52;77.17;98961.13;4993377;28;20481;-50
2022/02/17 06:24:12;;;;;;;0.30;0.20;;;;;;;11.51;77.96;98962.91;4993240;28;20524;-49
2022/02/17 06:26:38;;;;;;;0.30;0.20;;;;;;;11.45;78.32;98970.34;4993373;28;20819;-50
2022/02/17 06:29:05;;;;;;;0.30;0.20;;;;;;;11.39;77.61;98984.84;4993179;28;20453;-50
2022/02/17 06:31:31;;;;;;;1.70;1.60;;;;;;;11.45;77.85;98991.63;4993112;28;20454;-49
2022/02/17 06:33:58;;;;;;;0.30;0.20;;;;;;;11.39;78.84;98997.31;4993172;28;20601;-50
2022/02/17 06:36:26;;;;;;;0.30;0.20;;;;;;;11.35;78.96;99009.88;4992992;28;20513;-49
2022/02/17 06:38:52;;;;;;;0.30;0.20;;;;;;;11.40;78.59;99009.66;4993449;28;20809;-49
2022/02/17 06:41:23;;;;;;;0.30;0.20;;;;;;;11.39;79.31;99016.78;4993772;28;20449;-49
2022/02/17 06:43:50;;;;;;;0.30;0.20;;;;;;;11.42;79.12;99018.41;4992932;28;20453;-50
2022/02/17 06:46:16;;;;;;;0.30;0.20;;;;;;;11.43;79.42;99021.00;4992997;28;20474;-49
2022/02/17 06:48:43;;;;;;;0.30;0.20;;;;;;;11.36;79.68;99032.88;4993086;28;20457;-50
2022/02/17 06:51:10;;;;;;;0.30;0.20;;;;;;;11.33;79.66;99051.66;4993030;28;20453;-49
2022/02/17 06:53:40;;;;;;;0.30;0.20;;;;;;;11.46;79.29;99034.13;4993158;28;20489;-50
2022/02/17 06:56:08;;;;;;;0.30;0.20;;;;;;;11.57;79.03;99028.25;4992822;28;20469;-50
2022/02/17 06:58:34;;;;;;;0.30;0.20;;;;;;;11.40;78.69;99037.13;4992726;28;20449;-49
2022/02/17 07:01:03;;;;;;;2.10;1.03;;;;;;;11.42;77.65;99042.38;4993103;28;20460;-50
2022/02/17 07:03:30;;;;;;;0.30;0.20;;;;;;;11.49;77.28;99051.72;4992769;28;20453;-50
2022/02/17 07:05:56;;;;;;;0.30;0.20;;;;;;;11.36;77.90;99058.63;4992899;28;20509;-50
2022/02/17 07:08:23;;;;;;;0.30;0.20;;;;;;;11.41;77.65;99056.59;4992720;28;20457;-49
2022/02/17 07:10:55;;;;;;;0.30;0.20;;;;;;;11.43;78.45;99042.28;4992490;28;20833;-50
2022/02/17 07:13:23;;;;;;;0.30;0.20;;;;;;;11.48;78.63;99050.88;4992834;28;20508;-50
2022/02/17 07:15:50;;;;;;;0.30;0.20;;;;;;;11.46;78.75;99060.75;4992882;28;20474;-50
2022/02/17 07:18:22;;;;;;;0.30;0.20;;;;;;;11.39;78.45;99055.84;4992896;28;20464;-49
2022/02/17 07:20:50;;;;;;;0.40;0.40;;;;;;;11.40;78.56;99062.88;4992927;28;20450;-50
2022/02/17 07:23:18;;;;;;;0.30;0.20;;;;;;;11.52;78.19;99064.91;4994586;28;20499;-49
2022/02/17 07:25:46;;;;;;;0.40;0.30;;;;;;;11.51;78.32;99081.78;4996390;28;20469;-49
2022/02/17 07:28:13;;;;;;;0.30;0.20;;;;;;;11.50;78.37;99082.72;4996687;28;20496;-50
2022/02/17 07:30:41;;;;;;;0.30;0.20;;;;;;;11.51;78.85;99088.00;4996511;28;20519;-50
2022/02/17 07:33:11;;;;;;;0.30;0.20;;;;;;;11.67;79.12;99072.06;4997110;28;20865;-50
2022/02/17 07:35:38;;;;;;;0.30;0.20;;;;;;;11.61;77.56;99077.72;4996607;28;20485;-50
2022/02/17 07:38:06;;;;;;;0.30;0.20;;;;;;;11.62;78.20;99098.06;4996331;28;20480;-50
2022/02/17 07:40:35;;;;;;;0.30;0.20;;;;;;;11.71;78.50;99088.75;4996451;28;20503;-50
2022/02/17 07:43:02;;;;;;;0.30;0.20;;;;;;;11.74;78.77;99104.53;4996269;28;20489;-49
2022/02/17 07:45:29;;;;;;;0.30;0.20;;;;;;;11.81;78.67;99100.66;4995945;28;20465;-50
2022/02/17 07:47:55;;;;;;;24.87;1.50;;;;;;;11.78;78.49;99114.94;4996171;28;20477;-50
2022/02/17 07:50:27;;;;;;;0.30;0.20;;;;;;;11.83;77.19;99136.06;4996117;28;20449;-50
2022/02/17 07:52:58;;;;;;;2.23;2.13;;;;;;;11.80;77.24;99147.72;4996295;28;20450;-49
2022/02/17 07:55:27;;;;;;;0.30;0.20;;;;;;;11.74;77.50;99149.81;4995808;28;20950;-50
2022/02/17 07:58:00;;;;;;;0.30;0.20;;;;;;;11.78;77.97;99149.56;4996173;28;20449;-50
2022/02/17 08:00:27;;;;;;;0.30;0.20;;;;;;;11.82;78.01;99153.84;4995939;28;20449;-50
2022/02/17 08:02:54;;;;;;;0.30;0.20;;;;;;;11.89;77.28;99145.50;4996154;28;20459;-49
2022/02/17 08:05:21;;;;;;;0.30;0.20;;;;;;;11.70;77.64;99161.56;4982670;28;20531;-49
2022/02/17 08:07:47;;;;;;;0.30;0.20;;;;;;;11.74;78.16;99161.31;4995709;28;20485;-49
2022/02/17 08:10:14;;;;;;;0.30;0.20;;;;;;;11.80;77.63;99179.69;4995870;28;20499;-48
2022/02/17 08:12:42;;;;;;;0.30;0.20;;;;;;;11.86;77.24;99179.34;4995854;28;20504;-49
2022/02/17 08:15:10;;;;;;;0.30;0.20;;;;;;;11.71;78.06;99171.25;4983003;28;20520;-49
2022/02/17 08:17:36;;;;;;;0.30;0.20;;;;;;;11.74;78.92;99173.75;4995529;28;20985;-52
2022/02/17 08:20:05;;;;;;;0.30;0.20;;;;;;;11.76;78.73;99187.84;4982686;28;20458;-50
2022/02/17 08:22:32;;;;;;;0.30;0.20;;;;;;;11.76;78.38;99187.84;4995601;28;20863;-50
2022/02/17 08:24:58;;;;;;;0.30;0.20;;;;;;;11.69;76.58;99184.66;4995631;28;20465;-50
2022/02/17 08:27:25;;;;;;;0.30;0.20;;;;;;;11.73;75.50;99198.66;4995607;28;20454;-50
2022/02/17 08:29:52;;;;;;;0.30;0.20;;;;;;;11.78;76.88;99215.25;4995349;28;20512;-50
2022/02/17 08:32:18;;;;;;;0.30;0.20;;;;;;;11.69;79.52;99213.06;4995340;28;20516;-50
2022/02/17 08:34:45;;;;;;;0.30;0.20;;;;;;;11.73;78.83;99219.97;4993949;28;21017;-50
2022/02/17 08:37:12;;;;;;;0.30;0.20;;;;;;;11.75;77.59;99220.75;4995439;28;20515;-50
2022/02/17 08:39:38;;;;;;;0.30;0.20;;;;;;;11.70;77.10;99238.75;4995119;28;20827;-50
2022/02/17 08:42:05;;;;;;;0.30;0.20;;;;;;;11.66;78.02;99256.69;4995082;28;20476;-50
2022/02/17 08:44:32;;;;;;;0.30;0.20;;;;;;;11.61;79.81;99242.72;4995138;28;20998;-49
2022/02/17 08:46:58;;;;;;;0.40;0.37;;;;;;;11.65;80.31;99238.09;4994920;28;20939;-50
2022/02/17 08:49:25;;;;;;;0.30;0.20;;;;;;;11.46;80.75;99239.03;4995366;28;20487;-50
2022/02/17 08:51:52;;;;;;;0.30;0.20;;;;;;;11.61;79.22;99244.53;4995072;28;20508;-50
2022/02/17 08:54:19;;;;;;;0.30;0.20;;;;;;;11.77;77.96;99256.13;4995048;28;20536;-50
2022/02/17 08:56:45;;;;;;;0.30;0.20;;;;;;;11.86;77.11;99258.38;4995113;28;20453;-50
2022/02/17 08:59:12;;;;;;;0.30;0.20;;;;;;;11.90;77.63;99259.06;4995013;28;20473;-50
2022/02/17 09:01:38;;;;;;;0.30;0.20;;;;;;;11.81;76.89;99269.25;4995182;28;20449;-50
2022/02/17 09:04:05;;;;;;;0.30;0.20;;;;;;;11.69;78.33;99282.28;4995024;28;20445;-50
2022/02/17 09:06:32;;;;;;;2.50;2.40;;;;;;;11.80;79.11;99253.38;4994873;28;20479;-50
2022/02/17 09:09:00;;;;;;;0.30;0.20;;;;;;;11.76;78.75;99267.72;4992454;28;20516;-50
2022/02/17 09:11:27;;;;;;;0.30;0.20;;;;;;;11.68;78.61;99291.22;4991396;28;20489;-51
2022/02/17 09:13:53;;;;;;;0.30;0.20;;;;;;;11.62;82.25;99283.50;4994528;28;20485;-50
2022/02/17 09:16:20;;;;;;;0.30;0.20;;;;;;;11.52;82.90;99291.97;4994601;28;20536;-50
2022/02/17 09:18:47;;;;;;;0.30;0.20;;;;;;;11.74;83.51;99302.41;4994776;28;20458;-50
2022/02/17 09:21:16;;;;;;;0.30;0.20;;;;;;;11.55;83.23;99283.81;4994421;28;20460;-50
2022/02/17 09:23:43;;;;;;;0.30;0.20;;;;;;;11.73;82.78;99290.03;4994628;28;20508;-50
2022/02/17 09:26:09;;;;;;;0.30;0.20;;;;;;;11.83;82.45;99307.31;4994347;28;20470;-50
2022/02/17 09:28:36;;;;;;;0.30;0.20;;;;;;;11.89;83.41;99316.78;4994238;28;20500;-50
2022/02/17 09:31:03;;;;;;;0.30;0.20;;;;;;;12.20;82.88;99316.13;4994198;28;21013;-50
2022/02/17 09:33:30;;;;;;;0.30;0.20;;;;;;;11.97;82.81;99321.75;4994460;28;20476;-50
2022/02/17 09:35:58;;;;;;;0.30;0.20;;;;;;;12.03;82.36;99324.09;4993972;28;20563;-50
2022/02/17 09:38:30;;;;;;;0.30;0.20;;;;;;;11.89;83.27;99322.13;4994136;28;20453;-50
2022/02/17 09:40:58;;;;;;;1.07;1.07;;;;;;;11.96;83.21;99322.69;4994034;28;20458;-50
2022/02/17 09:43:25;;;;;;;0.30;0.20;;;;;;;12.06;82.84;99330.16;4994488;28;20520;-50
2022/02/17 09:45:52;;;;;;;0.30;0.20;;;;;;;11.96;83.84;99326.22;4993813;28;20461;-50
2022/02/17 09:48:19;;;;;;;0.30;0.20;;;;;;;11.80;82.37;99336.78;4994134;28;20516;-50
2022/02/17 09:50:46;;;;;;;0.30;0.20;;;;;;;11.73;82.84;99337.97;4993852;28;20453;-49
2022/02/17 09:53:13;;;;;;;0.30;0.20;;;;;;;11.87;82.67;99353.28;4987399;28;20453;-50
2022/02/17 09:55:40;;;;;;;0.30;0.20;;;;;;;12.04;82.34;99342.66;4993579;28;20564;-50
2022/02/17 09:58:07;;;;;;;0.30;0.20;;;;;;;12.29;81.58;99368.94;4994038;28;20453;-50
2022/02/17 10:00:34;;;;;;;0.30;0.20;;;;;;;12.19;82.05;99359.69;4980949;28;20457;-50
2022/02/17 10:03:19;;;;;;;0.30;0.20;;;;;;;12.33;79.97;99357.19;4993593;28;20824;-50
2022/02/17 10:06:21;;;;;;;0.30;0.20;;;;;;;12.57;79.66;99360.41;4993599;28;20585;-50
2022/02/17 10:08:51;;;;;;;0.30;0.20;;;;;;;12.64;78.54;99352.97;4922293;29;20464;-50
2022/02/17 10:11:28;;;;;;;0.30;0.20;;;;;;;12.59;78.22;99368.31;4982656;28;20989;-50
2022/02/17 10:14:04;;;;;;;0.30;0.20;;;;;;;12.67;77.01;99367.00;4993457;28;20879;-50
2022/02/17 10:16:50;;;;;;;0.30;0.20;;;;;;;12.60;77.22;99368.22;4993559;28;20874;-50
2022/02/17 10:19:17;;;;;;;0.30;0.20;;;;;;;12.70;76.38;99366.81;4993579;28;20449;-51
2022/02/17 10:21:44;;;;;;;0.30;0.20;;;;;;;12.81;76.25;99365.41;4993654;28;20962;-50
2022/02/17 10:24:36;;;;;;;0.30;0.20;;;;;;;13.07;74.78;99372.03;4993320;28;20893;-50
2022/02/17 10:27:06;;;;;;;0.30;0.20;;;;;;;13.17;73.26;99365.25;4993279;28;20453;-50
2022/02/17 10:29:34;;;;;;;0.40;0.23;;;;;;;13.22;73.49;99376.56;4993425;28;20474;-51
2022/02/17 10:32:05;;;;;;;0.30;0.20;;;;;;;13.20;73.46;99374.00;4993401;28;20457;-50
2022/02/17 10:34:32;;;;;;;0.30;0.20;;;;;;;13.36;72.09;99365.16;4992962;28;21068;-50
2022/02/17 10:36:59;;;;;;;0.30;0.20;;;;;;;13.20;69.87;99397.16;4993731;28;20481;-49
2022/02/17 10:39:27;;;;;;;0.30;0.20;;;;;;;13.00;69.49;99395.50;4993144;28;20531;-49
2022/02/17 10:41:56;;;;;;;0.30;0.20;;;;;;;12.86;69.82;99392.69;4993349;28;20477;-49
2022/02/17 10:44:28;;;;;;;0.30;0.20;;;;;;;12.99;70.86;99393.78;4993091;28;20481;-50
2022/02/17 10:46:55;;;;;;;0.30;0.20;;;;;;;12.98;68.93;99405.38;4993045;28;20441;-49
2022/02/17 10:49:23;;;;;;;0.30;0.20;;;;;;;12.95;70.13;99411.75;4993009;28;20935;-49
2022/02/17 10:51:50;;;;;;;0.30;0.20;;;;;;;12.85;71.04;99415.84;4992894;28;20489;-49
2022/02/17 10:54:24;;;;;;;0.30;0.20;;;;;;;12.64;70.60;99415.16;4992861;28;20485;-50
2022/02/17 10:56:51;;;;;;;0.30;0.20;;;;;;;12.42;78.41;99444.69;4992369;28;20496;-49
2022/02/17 11:02:21;;;;;;;0.50;0.50;;;;;;;11.33;87.13;99461.38;4981308;28;20780;-49
2022/02/17 11:04:50;;;;;;;0.30;0.20;;;;;;;11.32;90.25;99464.97;4992592;28;20465;-48
2022/02/17 11:07:18;;;;;;;0.30;0.20;;;;;;;11.32;88.20;99478.28;4992972;28;20449;-49
2022/02/17 11:09:46;;;;;;;0.30;0.20;;;;;;;11.37;90.14;99486.91;4992808;28;20461;-49
2022/02/17 11:12:16;;;;;;;0.30;0.20;;;;;;;11.06;92.75;99470.59;4993067;28;20446;-48
2022/02/17 11:14:44;;;;;;;0.30;0.20;;;;;;;10.68;95.53;99479.25;4993021;28;20524;-48
2022/02/17 11:17:13;;;;;;;0.40;0.30;;;;;;;10.64;94.98;99477.69;4992502;28;21032;-48
2022/02/17 11:19:52;;;;;;;1.00;1.00;;;;;;;10.84;95.05;99466.22;4992828;28;20446;-48
2022/02/17 11:22:19;;;;;;;14.73;1.70;;;;;;;10.96;92.70;99460.38;4992814;28;20453;-48
2022/02/17 11:24:47;;;;;;;0.93;0.77;;;;;;;11.03;93.62;99474.25;4992293;28;20980;-48
2022/02/17 11:27:14;;;;;;;0.30;0.20;;;;;;;11.04;90.29;99467.13;4992259;28;20484;-48
2022/02/17 11:29:42;;;;;;;0.30;0.20;;;;;;;11.25;90.45;99458.22;4992364;28;20457;-48
2022/02/17 11:32:19;;;;;;;0.30;0.20;;;;;;;11.46;90.63;99457.25;4992452;28;20450;-48
2022/02/17 11:34:46;;;;;;;0.30;0.20;;;;;;;11.70;89.64;99449.06;4980876;28;20493;-48
2022/02/17 11:37:22;;;;;;;0.30;0.20;;;;;;;12.07;89.45;99469.53;4992489;28;20503;-49
2022/02/17 11:39:58;;;;;;;0.30;0.20;;;;;;;12.11;84.71;99461.31;4992286;28;20453;-49